sensor_id;sensor_type;location;lat;lon;timestamp;P1;durP1;ratioP1;P2;durP2;ratioP2
38779;SDS011;29273;49.962;9.768;2023-11-18T00:02:25;2.40;;;2.08;;
38779;SDS011;29273;49.962;9.768;2023-11-18T00:04:51;2.85;;;2.10;;
38779;SDS011;29273;49.962;9.768;2023-11-18T00:07:16;3.30;;;2.17;;
38779;SDS011;29273;49.962;9.768;2023-11-18T00:09:42;2.92;;;2.13;;
38779;SDS011;29273;49.962;9.768;2023-11-18T00:12:11;3.58;;;2.50;;
38779;SDS011;29273;49.962;9.768;2023-11-18T00:14:37;3.15;;;2.47;;
38779;SDS011;29273;49.962;9.768;2023-11-18T00:17:03;2.95;;;2.20;;
38779;SDS011;29273;49.962;9.768;2023-11-18T00:19:29;3.05;;;2.40;;
38779;SDS011;29273;49.962;9.768;2023-11-18T00:21:55;3.67;;;2.40;;
38779;SDS011;29273;49.962;9.768;2023-11-18T00:24:21;4.07;;;2.70;;
38779;SDS011;29273;49.962;9.768;2023-11-18T00:26:46;3.10;;;2.50;;
38779;SDS011;29273;49.962;9.768;2023-11-18T00:29:12;3.35;;;2.60;;
38779;SDS011;29273;49.962;9.768;2023-11-18T00:31:37;4.00;;;2.75;;
38779;SDS011;29273;49.962;9.768;2023-11-18T00:34:03;3.22;;;2.80;;
38779;SDS011;29273;49.962;9.768;2023-11-18T00:36:29;2.72;;;2.35;;
38779;SDS011;29273;49.962;9.768;2023-11-18T00:38:54;2.70;;;2.15;;
38779;SDS011;29273;49.962;9.768;2023-11-18T00:41:20;3.67;;;2.33;;
38779;SDS011;29273;49.962;9.768;2023-11-18T00:43:46;3.13;;;1.90;;
38779;SDS011;29273;49.962;9.768;2023-11-18T00:46:12;2.85;;;2.30;;
38779;SDS011;29273;49.962;9.768;2023-11-18T00:48:38;2.58;;;1.92;;
38779;SDS011;29273;49.962;9.768;2023-11-18T00:51:04;3.05;;;2.10;;
38779;SDS011;29273;49.962;9.768;2023-11-18T00:53:31;1.95;;;1.60;;
38779;SDS011;29273;49.962;9.768;2023-11-18T00:55:57;1.95;;;1.60;;
38779;SDS011;29273;49.962;9.768;2023-11-18T00:58:22;1.88;;;1.65;;
38779;SDS011;29273;49.962;9.768;2023-11-18T01:00:48;2.10;;;1.70;;
38779;SDS011;29273;49.962;9.768;2023-11-18T01:03:13;1.50;;;1.40;;
38779;SDS011;29273;49.962;9.768;2023-11-18T01:05:39;1.95;;;1.75;;
38779;SDS011;29273;49.962;9.768;2023-11-18T01:08:04;2.00;;;1.60;;
38779;SDS011;29273;49.962;9.768;2023-11-18T01:10:30;2.00;;;1.50;;
38779;SDS011;29273;49.962;9.768;2023-11-18T01:12:56;2.85;;;1.90;;
38779;SDS011;29273;49.962;9.768;2023-11-18T01:15:23;1.88;;;1.60;;
38779;SDS011;29273;49.962;9.768;2023-11-18T01:17:48;1.98;;;1.77;;
38779;SDS011;29273;49.962;9.768;2023-11-18T01:20:14;2.60;;;2.00;;
38779;SDS011;29273;49.962;9.768;2023-11-18T01:22:46;2.20;;;1.73;;
38779;SDS011;29273;49.962;9.768;2023-11-18T01:25:12;1.65;;;1.55;;
38779;SDS011;29273;49.962;9.768;2023-11-18T01:27:37;2.20;;;1.80;;
38779;SDS011;29273;49.962;9.768;2023-11-18T01:30:03;1.73;;;1.55;;
38779;SDS011;29273;49.962;9.768;2023-11-18T01:32:30;2.10;;;1.90;;
38779;SDS011;29273;49.962;9.768;2023-11-18T01:34:55;2.45;;;2.10;;
38779;SDS011;29273;49.962;9.768;2023-11-18T01:37:22;2.30;;;2.00;;
38779;SDS011;29273;49.962;9.768;2023-11-18T01:39:48;2.03;;;1.83;;
38779;SDS011;29273;49.962;9.768;2023-11-18T01:42:14;1.80;;;1.60;;
38779;SDS011;29273;49.962;9.768;2023-11-18T01:44:39;2.38;;;1.80;;
38779;SDS011;29273;49.962;9.768;2023-11-18T01:47:05;2.20;;;2.00;;
38779;SDS011;29273;49.962;9.768;2023-11-18T01:49:36;2.50;;;1.83;;
38779;SDS011;29273;49.962;9.768;2023-11-18T01:52:05;2.20;;;2.00;;
38779;SDS011;29273;49.962;9.768;2023-11-18T01:54:36;2.97;;;2.22;;
38779;SDS011;29273;49.962;9.768;2023-11-18T01:57:03;1.67;;;1.58;;
38779;SDS011;29273;49.962;9.768;2023-11-18T01:59:31;2.20;;;1.85;;
38779;SDS011;29273;49.962;9.768;2023-11-18T02:01:59;1.80;;;1.55;;
38779;SDS011;29273;49.962;9.768;2023-11-18T02:04:27;1.77;;;1.67;;
38779;SDS011;29273;49.962;9.768;2023-11-18T02:06:53;2.10;;;1.90;;
38779;SDS011;29273;49.962;9.768;2023-11-18T02:09:19;2.20;;;1.90;;
38779;SDS011;29273;49.962;9.768;2023-11-18T02:14:38;1.65;;;1.55;;
38779;SDS011;29273;49.962;9.768;2023-11-18T02:17:05;1.70;;;1.58;;
38779;SDS011;29273;49.962;9.768;2023-11-18T02:19:35;2.05;;;1.83;;
38779;SDS011;29273;49.962;9.768;2023-11-18T02:22:03;1.65;;;1.55;;
38779;SDS011;29273;49.962;9.768;2023-11-18T02:24:32;1.92;;;1.73;;
38779;SDS011;29273;49.962;9.768;2023-11-18T02:27:06;2.03;;;1.40;;
38779;SDS011;29273;49.962;9.768;2023-11-18T02:29:42;1.55;;;1.45;;
38779;SDS011;29273;49.962;9.768;2023-11-18T02:35:15;1.75;;;1.63;;
38779;SDS011;29273;49.962;9.768;2023-11-18T02:37:47;1.83;;;1.48;;
38779;SDS011;29273;49.962;9.768;2023-11-18T02:40:18;1.48;;;1.38;;
38779;SDS011;29273;49.962;9.768;2023-11-18T02:42:45;1.90;;;1.60;;
38779;SDS011;29273;49.962;9.768;2023-11-18T02:45:14;1.80;;;1.60;;
38779;SDS011;29273;49.962;9.768;2023-11-18T02:47:44;2.10;;;1.60;;
38779;SDS011;29273;49.962;9.768;2023-11-18T02:50:10;2.17;;;1.88;;
38779;SDS011;29273;49.962;9.768;2023-11-18T02:52:39;1.67;;;1.48;;
38779;SDS011;29273;49.962;9.768;2023-11-18T02:55:08;2.00;;;1.80;;
38779;SDS011;29273;49.962;9.768;2023-11-18T02:57:34;2.03;;;1.70;;
38779;SDS011;29273;49.962;9.768;2023-11-18T03:00:01;2.03;;;1.73;;
38779;SDS011;29273;49.962;9.768;2023-11-18T03:02:27;1.98;;;1.65;;
38779;SDS011;29273;49.962;9.768;2023-11-18T03:04:59;1.70;;;1.58;;
38779;SDS011;29273;49.962;9.768;2023-11-18T03:07:25;2.13;;;1.63;;
38779;SDS011;29273;49.962;9.768;2023-11-18T03:09:55;2.40;;;2.05;;
38779;SDS011;29273;49.962;9.768;2023-11-18T03:12:25;2.22;;;1.65;;
38779;SDS011;29273;49.962;9.768;2023-11-18T03:14:54;1.70;;;1.60;;
38779;SDS011;29273;49.962;9.768;2023-11-18T03:17:20;1.95;;;1.70;;
38779;SDS011;29273;49.962;9.768;2023-11-18T03:19:45;2.35;;;1.85;;
38779;SDS011;29273;49.962;9.768;2023-11-18T03:22:11;1.77;;;1.60;;
38779;SDS011;29273;49.962;9.768;2023-11-18T03:24:38;2.00;;;1.77;;
38779;SDS011;29273;49.962;9.768;2023-11-18T03:27:04;2.30;;;1.90;;
38779;SDS011;29273;49.962;9.768;2023-11-18T03:29:29;3.13;;;2.20;;
38779;SDS011;29273;49.962;9.768;2023-11-18T03:31:55;2.00;;;1.77;;
38779;SDS011;29273;49.962;9.768;2023-11-18T03:34:21;2.30;;;1.88;;
38779;SDS011;29273;49.962;9.768;2023-11-18T03:36:47;2.08;;;1.88;;
38779;SDS011;29273;49.962;9.768;2023-11-18T03:39:13;3.10;;;2.28;;
38779;SDS011;29273;49.962;9.768;2023-11-18T03:41:39;2.03;;;1.80;;
38779;SDS011;29273;49.962;9.768;2023-11-18T03:44:06;2.72;;;2.05;;
38779;SDS011;29273;49.962;9.768;2023-11-18T03:46:31;2.40;;;2.08;;
38779;SDS011;29273;49.962;9.768;2023-11-18T03:48:59;2.30;;;2.08;;
38779;SDS011;29273;49.962;9.768;2023-11-18T03:51:26;2.97;;;1.80;;
38779;SDS011;29273;49.962;9.768;2023-11-18T03:53:51;3.03;;;2.00;;
38779;SDS011;29273;49.962;9.768;2023-11-18T03:56:17;2.72;;;2.15;;
38779;SDS011;29273;49.962;9.768;2023-11-18T03:58:45;2.80;;;2.30;;
38779;SDS011;29273;49.962;9.768;2023-11-18T04:01:21;3.22;;;2.35;;
38779;SDS011;29273;49.962;9.768;2023-11-18T04:03:52;3.38;;;2.30;;
38779;SDS011;29273;49.962;9.768;2023-11-18T04:06:19;3.42;;;2.30;;
38779;SDS011;29273;49.962;9.768;2023-11-18T04:08:47;4.13;;;2.15;;
38779;SDS011;29273;49.962;9.768;2023-11-18T04:11:13;2.60;;;2.20;;
38779;SDS011;29273;49.962;9.768;2023-11-18T04:13:42;2.10;;;1.90;;
38779;SDS011;29273;49.962;9.768;2023-11-18T04:16:12;2.28;;;1.75;;
38779;SDS011;29273;49.962;9.768;2023-11-18T04:18:41;2.30;;;1.90;;
38779;SDS011;29273;49.962;9.768;2023-11-18T04:21:08;2.70;;;2.22;;
38779;SDS011;29273;49.962;9.768;2023-11-18T04:23:37;2.90;;;2.22;;
38779;SDS011;29273;49.962;9.768;2023-11-18T04:26:03;3.63;;;2.60;;
38779;SDS011;29273;49.962;9.768;2023-11-18T04:28:30;3.47;;;2.70;;
38779;SDS011;29273;49.962;9.768;2023-11-18T04:30:56;4.22;;;2.65;;
38779;SDS011;29273;49.962;9.768;2023-11-18T04:33:22;3.30;;;2.45;;
38779;SDS011;29273;49.962;9.768;2023-11-18T04:35:50;5.07;;;2.60;;
38779;SDS011;29273;49.962;9.768;2023-11-18T04:38:16;5.25;;;3.10;;
38779;SDS011;29273;49.962;9.768;2023-11-18T04:40:42;3.05;;;2.70;;
38779;SDS011;29273;49.962;9.768;2023-11-18T04:43:10;4.10;;;2.83;;
38779;SDS011;29273;49.962;9.768;2023-11-18T04:45:37;4.28;;;2.85;;
38779;SDS011;29273;49.962;9.768;2023-11-18T04:48:03;4.53;;;2.83;;
38779;SDS011;29273;49.962;9.768;2023-11-18T04:50:29;3.50;;;2.83;;
38779;SDS011;29273;49.962;9.768;2023-11-18T04:52:55;3.28;;;2.65;;
38779;SDS011;29273;49.962;9.768;2023-11-18T04:55:21;3.20;;;2.67;;
38779;SDS011;29273;49.962;9.768;2023-11-18T04:57:47;4.43;;;2.80;;
38779;SDS011;29273;49.962;9.768;2023-11-18T05:00:12;3.40;;;2.90;;
38779;SDS011;29273;49.962;9.768;2023-11-18T05:02:41;4.00;;;3.10;;
38779;SDS011;29273;49.962;9.768;2023-11-18T05:05:08;3.97;;;3.15;;
38779;SDS011;29273;49.962;9.768;2023-11-18T05:07:34;4.15;;;2.85;;
38779;SDS011;29273;49.962;9.768;2023-11-18T05:10:00;3.80;;;3.00;;
38779;SDS011;29273;49.962;9.768;2023-11-18T05:12:26;4.47;;;2.63;;
38779;SDS011;29273;49.962;9.768;2023-11-18T05:14:55;3.05;;;2.67;;
38779;SDS011;29273;49.962;9.768;2023-11-18T05:17:22;3.15;;;2.65;;
38779;SDS011;29273;49.962;9.768;2023-11-18T05:19:48;3.20;;;2.78;;
38779;SDS011;29273;49.962;9.768;2023-11-18T05:22:13;3.25;;;2.50;;
38779;SDS011;29273;49.962;9.768;2023-11-18T05:24:39;2.92;;;2.47;;
38779;SDS011;29273;49.962;9.768;2023-11-18T05:27:04;3.58;;;2.40;;
38779;SDS011;29273;49.962;9.768;2023-11-18T05:29:30;3.92;;;2.58;;
38779;SDS011;29273;49.962;9.768;2023-11-18T05:31:56;2.58;;;2.25;;
38779;SDS011;29273;49.962;9.768;2023-11-18T05:34:21;2.90;;;2.17;;
38779;SDS011;29273;49.962;9.768;2023-11-18T05:36:47;2.90;;;2.50;;
38779;SDS011;29273;49.962;9.768;2023-11-18T05:39:14;3.72;;;2.88;;
38779;SDS011;29273;49.962;9.768;2023-11-18T05:41:40;3.85;;;2.60;;
38779;SDS011;29273;49.962;9.768;2023-11-18T05:44:10;5.57;;;3.33;;
38779;SDS011;29273;49.962;9.768;2023-11-18T05:46:42;4.30;;;2.95;;
38779;SDS011;29273;49.962;9.768;2023-11-18T05:49:11;4.55;;;3.45;;
38779;SDS011;29273;49.962;9.768;2023-11-18T05:51:39;4.32;;;3.15;;
38779;SDS011;29273;49.962;9.768;2023-11-18T05:54:08;4.53;;;3.65;;
38779;SDS011;29273;49.962;9.768;2023-11-18T05:56:35;5.63;;;3.78;;
38779;SDS011;29273;49.962;9.768;2023-11-18T05:59:01;6.25;;;3.83;;
38779;SDS011;29273;49.962;9.768;2023-11-18T06:01:28;8.05;;;4.20;;
38779;SDS011;29273;49.962;9.768;2023-11-18T06:03:54;4.60;;;3.30;;
38779;SDS011;29273;49.962;9.768;2023-11-18T06:06:19;4.78;;;3.13;;
38779;SDS011;29273;49.962;9.768;2023-11-18T06:08:46;3.58;;;2.80;;
38779;SDS011;29273;49.962;9.768;2023-11-18T06:11:13;3.35;;;2.50;;
38779;SDS011;29273;49.962;9.768;2023-11-18T06:13:43;3.22;;;2.50;;
38779;SDS011;29273;49.962;9.768;2023-11-18T06:16:18;3.15;;;2.42;;
38779;SDS011;29273;49.962;9.768;2023-11-18T06:18:51;2.80;;;2.20;;
38779;SDS011;29273;49.962;9.768;2023-11-18T06:21:21;2.55;;;2.28;;
38779;SDS011;29273;49.962;9.768;2023-11-18T06:23:55;2.70;;;2.10;;
38779;SDS011;29273;49.962;9.768;2023-11-18T06:26:21;2.20;;;1.95;;
38779;SDS011;29273;49.962;9.768;2023-11-18T06:28:47;2.17;;;1.90;;
38779;SDS011;29273;49.962;9.768;2023-11-18T06:31:16;1.88;;;1.77;;
38779;SDS011;29273;49.962;9.768;2023-11-18T06:33:42;2.40;;;2.00;;
38779;SDS011;29273;49.962;9.768;2023-11-18T06:38:48;2.22;;;1.95;;
38779;SDS011;29273;49.962;9.768;2023-11-18T06:41:18;2.10;;;1.70;;
38779;SDS011;29273;49.962;9.768;2023-11-18T06:43:44;1.90;;;1.70;;
38779;SDS011;29273;49.962;9.768;2023-11-18T06:46:20;1.98;;;1.70;;
38779;SDS011;29273;49.962;9.768;2023-11-18T06:48:50;1.48;;;1.38;;
38779;SDS011;29273;49.962;9.768;2023-11-18T06:51:22;1.80;;;1.40;;
38779;SDS011;29273;49.962;9.768;2023-11-18T06:53:50;1.73;;;1.50;;
38779;SDS011;29273;49.962;9.768;2023-11-18T06:56:17;1.48;;;1.38;;
38779;SDS011;29273;49.962;9.768;2023-11-18T06:58:42;1.48;;;1.38;;
38779;SDS011;29273;49.962;9.768;2023-11-18T07:01:11;1.50;;;1.30;;
38779;SDS011;29273;49.962;9.768;2023-11-18T07:03:38;1.33;;;1.23;;
38779;SDS011;29273;49.962;9.768;2023-11-18T07:06:04;1.90;;;1.30;;
38779;SDS011;29273;49.962;9.768;2023-11-18T07:08:31;1.40;;;1.30;;
38779;SDS011;29273;49.962;9.768;2023-11-18T07:10:57;1.42;;;1.33;;
38779;SDS011;29273;49.962;9.768;2023-11-18T07:13:23;1.55;;;1.40;;
38779;SDS011;29273;49.962;9.768;2023-11-18T07:15:49;1.50;;;1.30;;
38779;SDS011;29273;49.962;9.768;2023-11-18T07:18:15;1.40;;;1.30;;
38779;SDS011;29273;49.962;9.768;2023-11-18T07:20:41;1.83;;;1.42;;
38779;SDS011;29273;49.962;9.768;2023-11-18T07:23:07;1.67;;;1.58;;
38779;SDS011;29273;49.962;9.768;2023-11-18T07:25:34;1.70;;;1.60;;
38779;SDS011;29273;49.962;9.768;2023-11-18T07:28:00;2.22;;;1.92;;
38779;SDS011;29273;49.962;9.768;2023-11-18T07:30:25;1.92;;;1.73;;
38779;SDS011;29273;49.962;9.768;2023-11-18T07:32:51;2.60;;;2.10;;
38779;SDS011;29273;49.962;9.768;2023-11-18T07:35:17;2.25;;;2.00;;
38779;SDS011;29273;49.962;9.768;2023-11-18T07:37:43;2.22;;;1.88;;
38779;SDS011;29273;49.962;9.768;2023-11-18T07:40:08;2.45;;;2.10;;
38779;SDS011;29273;49.962;9.768;2023-11-18T07:42:37;2.20;;;1.98;;
38779;SDS011;29273;49.962;9.768;2023-11-18T07:45:03;2.38;;;2.08;;
38779;SDS011;29273;49.962;9.768;2023-11-18T07:47:38;2.63;;;2.10;;
38779;SDS011;29273;49.962;9.768;2023-11-18T07:50:04;2.75;;;2.00;;
38779;SDS011;29273;49.962;9.768;2023-11-18T07:52:31;2.33;;;1.95;;
38779;SDS011;29273;49.962;9.768;2023-11-18T07:54:56;2.63;;;2.25;;
38779;SDS011;29273;49.962;9.768;2023-11-18T07:57:22;2.35;;;2.05;;
38779;SDS011;29273;49.962;9.768;2023-11-18T07:59:49;3.10;;;2.40;;
38779;SDS011;29273;49.962;9.768;2023-11-18T08:02:15;2.53;;;2.03;;
38779;SDS011;29273;49.962;9.768;2023-11-18T08:04:42;2.58;;;2.33;;
38779;SDS011;29273;49.962;9.768;2023-11-18T08:07:07;3.10;;;2.00;;
38779;SDS011;29273;49.962;9.768;2023-11-18T08:09:35;2.95;;;2.17;;
38779;SDS011;29273;49.962;9.768;2023-11-18T08:12:04;2.03;;;1.80;;
38779;SDS011;29273;49.962;9.768;2023-11-18T08:14:34;2.90;;;2.33;;
38779;SDS011;29273;49.962;9.768;2023-11-18T08:17:00;3.38;;;2.50;;
38779;SDS011;29273;49.962;9.768;2023-11-18T08:19:25;3.25;;;2.28;;
38779;SDS011;29273;49.962;9.768;2023-11-18T08:21:51;2.75;;;2.00;;
38779;SDS011;29273;49.962;9.768;2023-11-18T08:24:17;3.47;;;2.30;;
38779;SDS011;29273;49.962;9.768;2023-11-18T08:26:43;3.13;;;2.08;;
38779;SDS011;29273;49.962;9.768;2023-11-18T08:29:08;4.05;;;2.40;;
38779;SDS011;29273;49.962;9.768;2023-11-18T08:31:34;3.08;;;2.25;;
38779;SDS011;29273;49.962;9.768;2023-11-18T08:34:00;3.50;;;2.20;;
38779;SDS011;29273;49.962;9.768;2023-11-18T08:36:25;3.80;;;2.70;;
38779;SDS011;29273;49.962;9.768;2023-11-18T08:38:52;3.90;;;2.42;;
38779;SDS011;29273;49.962;9.768;2023-11-18T08:41:18;3.30;;;2.55;;
38779;SDS011;29273;49.962;9.768;2023-11-18T08:43:45;3.47;;;2.70;;
38779;SDS011;29273;49.962;9.768;2023-11-18T08:46:14;3.83;;;2.50;;
38779;SDS011;29273;49.962;9.768;2023-11-18T08:48:40;3.20;;;2.40;;
38779;SDS011;29273;49.962;9.768;2023-11-18T08:51:07;4.00;;;2.60;;
38779;SDS011;29273;49.962;9.768;2023-11-18T08:53:34;4.35;;;2.70;;
38779;SDS011;29273;49.962;9.768;2023-11-18T08:56:09;3.53;;;2.67;;
38779;SDS011;29273;49.962;9.768;2023-11-18T08:58:41;3.67;;;2.78;;
38779;SDS011;29273;49.962;9.768;2023-11-18T09:01:09;4.35;;;3.30;;
38779;SDS011;29273;49.962;9.768;2023-11-18T09:03:38;3.90;;;2.97;;
38779;SDS011;29273;49.962;9.768;2023-11-18T09:06:08;3.83;;;3.10;;
38779;SDS011;29273;49.962;9.768;2023-11-18T09:08:50;5.38;;;3.33;;
38779;SDS011;29273;49.962;9.768;2023-11-18T09:11:20;4.93;;;3.28;;
38779;SDS011;29273;49.962;9.768;2023-11-18T09:13:48;4.18;;;3.15;;
38779;SDS011;29273;49.962;9.768;2023-11-18T09:16:16;6.15;;;3.50;;
38779;SDS011;29273;49.962;9.768;2023-11-18T09:18:43;6.40;;;3.75;;
38779;SDS011;29273;49.962;9.768;2023-11-18T09:21:12;6.65;;;3.90;;
38779;SDS011;29273;49.962;9.768;2023-11-18T09:23:41;6.30;;;3.83;;
38779;SDS011;29273;49.962;9.768;2023-11-18T09:26:07;6.63;;;4.30;;
38779;SDS011;29273;49.962;9.768;2023-11-18T09:28:35;6.75;;;4.00;;
38779;SDS011;29273;49.962;9.768;2023-11-18T09:31:02;6.05;;;3.80;;
38779;SDS011;29273;49.962;9.768;2023-11-18T09:33:30;7.03;;;3.83;;
38779;SDS011;29273;49.962;9.768;2023-11-18T09:36:03;6.18;;;3.35;;
38779;SDS011;29273;49.962;9.768;2023-11-18T09:38:33;6.80;;;4.07;;
38779;SDS011;29273;49.962;9.768;2023-11-18T09:41:01;6.80;;;4.18;;
38779;SDS011;29273;49.962;9.768;2023-11-18T09:43:31;6.10;;;4.00;;
38779;SDS011;29273;49.962;9.768;2023-11-18T09:46:14;5.40;;;3.30;;
38779;SDS011;29273;49.962;9.768;2023-11-18T09:48:47;7.03;;;3.85;;
38779;SDS011;29273;49.962;9.768;2023-11-18T09:51:25;6.55;;;3.90;;
38779;SDS011;29273;49.962;9.768;2023-11-18T09:53:58;7.13;;;4.03;;
38779;SDS011;29273;49.962;9.768;2023-11-18T09:56:30;7.28;;;4.03;;
38779;SDS011;29273;49.962;9.768;2023-11-18T09:59:23;8.25;;;4.43;;
38779;SDS011;29273;49.962;9.768;2023-11-18T10:02:10;8.13;;;4.47;;
38779;SDS011;29273;49.962;9.768;2023-11-18T10:04:36;7.93;;;4.65;;
38779;SDS011;29273;49.962;9.768;2023-11-18T10:07:04;8.45;;;4.82;;
38779;SDS011;29273;49.962;9.768;2023-11-18T10:09:32;8.13;;;4.97;;
38779;SDS011;29273;49.962;9.768;2023-11-18T10:12:04;7.18;;;4.80;;
38779;SDS011;29273;49.962;9.768;2023-11-18T10:14:35;8.05;;;4.78;;
38779;SDS011;29273;49.962;9.768;2023-11-18T10:17:04;6.85;;;4.35;;
38779;SDS011;29273;49.962;9.768;2023-11-18T10:22:31;6.32;;;4.25;;
38779;SDS011;29273;49.962;9.768;2023-11-18T10:24:57;8.48;;;4.95;;
38779;SDS011;29273;49.962;9.768;2023-11-18T10:27:29;8.10;;;5.07;;
38779;SDS011;29273;49.962;9.768;2023-11-18T10:29:56;8.20;;;5.15;;
38779;SDS011;29273;49.962;9.768;2023-11-18T10:32:22;10.68;;;5.93;;
38779;SDS011;29273;49.962;9.768;2023-11-18T10:34:53;8.50;;;5.32;;
38779;SDS011;29273;49.962;9.768;2023-11-18T10:37:21;10.25;;;5.85;;
38779;SDS011;29273;49.962;9.768;2023-11-18T10:39:48;8.38;;;5.00;;
38779;SDS011;29273;49.962;9.768;2023-11-18T10:42:20;8.25;;;5.40;;
38779;SDS011;29273;49.962;9.768;2023-11-18T10:44:55;6.07;;;4.22;;
38779;SDS011;29273;49.962;9.768;2023-11-18T10:47:26;8.43;;;4.75;;
38779;SDS011;29273;49.962;9.768;2023-11-18T10:49:53;6.32;;;4.13;;
38779;SDS011;29273;49.962;9.768;2023-11-18T10:52:21;6.32;;;3.92;;
38779;SDS011;29273;49.962;9.768;2023-11-18T10:54:54;6.78;;;4.13;;
38779;SDS011;29273;49.962;9.768;2023-11-18T10:57:23;5.65;;;3.53;;
38779;SDS011;29273;49.962;9.768;2023-11-18T10:59:59;6.57;;;4.00;;
38779;SDS011;29273;49.962;9.768;2023-11-18T11:02:30;5.72;;;3.80;;
38779;SDS011;29273;49.962;9.768;2023-11-18T11:05:00;6.82;;;4.72;;
38779;SDS011;29273;49.962;9.768;2023-11-18T11:07:26;5.97;;;3.85;;
38779;SDS011;29273;49.962;9.768;2023-11-18T11:09:53;5.85;;;4.00;;
38779;SDS011;29273;49.962;9.768;2023-11-18T11:12:21;5.13;;;3.67;;
38779;SDS011;29273;49.962;9.768;2023-11-18T11:14:53;5.40;;;3.67;;
38779;SDS011;29273;49.962;9.768;2023-11-18T11:17:25;6.05;;;4.10;;
38779;SDS011;29273;49.962;9.768;2023-11-18T11:20:00;6.80;;;4.50;;
38779;SDS011;29273;49.962;9.768;2023-11-18T11:22:55;6.95;;;4.60;;
38779;SDS011;29273;49.962;9.768;2023-11-18T11:25:36;5.78;;;4.22;;
38779;SDS011;29273;49.962;9.768;2023-11-18T11:28:15;5.82;;;4.03;;
38779;SDS011;29273;49.962;9.768;2023-11-18T11:30:46;4.60;;;3.47;;
38779;SDS011;29273;49.962;9.768;2023-11-18T11:36:12;7.38;;;4.40;;
38779;SDS011;29273;49.962;9.768;2023-11-18T11:38:41;5.25;;;3.45;;
38779;SDS011;29273;49.962;9.768;2023-11-18T11:41:11;7.10;;;4.60;;
38779;SDS011;29273;49.962;9.768;2023-11-18T11:43:48;6.10;;;4.25;;
38779;SDS011;29273;49.962;9.768;2023-11-18T11:46:15;7.13;;;4.47;;
38779;SDS011;29273;49.962;9.768;2023-11-18T11:48:49;6.63;;;4.38;;
38779;SDS011;29273;49.962;9.768;2023-11-18T11:51:23;6.78;;;4.32;;
38779;SDS011;29273;49.962;9.768;2023-11-18T11:53:58;5.97;;;4.15;;
38779;SDS011;29273;49.962;9.768;2023-11-18T11:56:41;6.60;;;4.50;;
38779;SDS011;29273;49.962;9.768;2023-11-18T11:59:17;5.90;;;4.38;;
38779;SDS011;29273;49.962;9.768;2023-11-18T12:02:21;6.00;;;4.28;;
38779;SDS011;29273;49.962;9.768;2023-11-18T12:04:57;5.70;;;4.07;;
38779;SDS011;29273;49.962;9.768;2023-11-18T12:07:31;6.38;;;4.05;;
38779;SDS011;29273;49.962;9.768;2023-11-18T12:10:07;7.65;;;3.90;;
38779;SDS011;29273;49.962;9.768;2023-11-18T12:12:38;6.32;;;4.28;;
38779;SDS011;29273;49.962;9.768;2023-11-18T12:15:05;7.00;;;4.50;;
38779;SDS011;29273;49.962;9.768;2023-11-18T12:23:19;5.80;;;3.90;;
38779;SDS011;29273;49.962;9.768;2023-11-18T12:25:48;5.55;;;4.07;;
38779;SDS011;29273;49.962;9.768;2023-11-18T12:31:01;5.28;;;3.83;;
38779;SDS011;29273;49.962;9.768;2023-11-18T12:42:10;5.90;;;4.00;;
38779;SDS011;29273;49.962;9.768;2023-11-18T12:47:42;5.63;;;4.13;;
38779;SDS011;29273;49.962;9.768;2023-11-18T12:50:09;6.55;;;4.32;;
38779;SDS011;29273;49.962;9.768;2023-11-18T12:52:43;6.38;;;4.43;;
38779;SDS011;29273;49.962;9.768;2023-11-18T12:55:11;5.70;;;4.20;;
38779;SDS011;29273;49.962;9.768;2023-11-18T12:57:47;6.10;;;4.20;;
38779;SDS011;29273;49.962;9.768;2023-11-18T13:00:15;5.15;;;4.05;;
38779;SDS011;29273;49.962;9.768;2023-11-18T13:02:51;6.93;;;4.43;;
38779;SDS011;29273;49.962;9.768;2023-11-18T13:05:19;6.95;;;4.72;;
38779;SDS011;29273;49.962;9.768;2023-11-18T13:07:44;5.32;;;4.15;;
38779;SDS011;29273;49.962;9.768;2023-11-18T13:10:10;6.20;;;4.72;;
38779;SDS011;29273;49.962;9.768;2023-11-18T13:12:41;5.45;;;3.90;;
38779;SDS011;29273;49.962;9.768;2023-11-18T13:15:08;6.05;;;4.30;;
38779;SDS011;29273;49.962;9.768;2023-11-18T13:17:34;6.53;;;4.40;;
38779;SDS011;29273;49.962;9.768;2023-11-18T13:20:13;5.88;;;4.50;;
38779;SDS011;29273;49.962;9.768;2023-11-18T13:22:39;4.93;;;3.95;;
38779;SDS011;29273;49.962;9.768;2023-11-18T13:25:06;4.97;;;3.88;;
38779;SDS011;29273;49.962;9.768;2023-11-18T13:27:32;5.60;;;4.00;;
38779;SDS011;29273;49.962;9.768;2023-11-18T13:29:57;6.60;;;4.32;;
38779;SDS011;29273;49.962;9.768;2023-11-18T13:32:23;5.55;;;4.07;;
38779;SDS011;29273;49.962;9.768;2023-11-18T13:34:51;5.35;;;3.92;;
38779;SDS011;29273;49.962;9.768;2023-11-18T13:37:16;5.45;;;4.07;;
38779;SDS011;29273;49.962;9.768;2023-11-18T13:39:52;5.32;;;4.03;;
38779;SDS011;29273;49.962;9.768;2023-11-18T13:42:22;6.07;;;4.20;;
38779;SDS011;29273;49.962;9.768;2023-11-18T13:44:49;6.78;;;4.63;;
38779;SDS011;29273;49.962;9.768;2023-11-18T13:47:18;6.28;;;4.38;;
38779;SDS011;29273;49.962;9.768;2023-11-18T13:49:45;6.22;;;4.45;;
38779;SDS011;29273;49.962;9.768;2023-11-18T13:52:12;5.03;;;4.03;;
38779;SDS011;29273;49.962;9.768;2023-11-18T13:54:41;5.65;;;4.15;;
38779;SDS011;29273;49.962;9.768;2023-11-18T13:57:10;4.82;;;3.95;;
38779;SDS011;29273;49.962;9.768;2023-11-18T13:59:37;5.80;;;4.28;;
38779;SDS011;29273;49.962;9.768;2023-11-18T14:02:03;5.85;;;4.20;;
38779;SDS011;29273;49.962;9.768;2023-11-18T14:04:30;6.47;;;4.47;;
38779;SDS011;29273;49.962;9.768;2023-11-18T14:06:59;6.78;;;4.38;;
38779;SDS011;29273;49.962;9.768;2023-11-18T14:09:33;5.82;;;4.43;;
38779;SDS011;29273;49.962;9.768;2023-11-18T14:12:05;5.53;;;4.35;;
38779;SDS011;29273;49.962;9.768;2023-11-18T14:14:31;5.63;;;4.30;;
38779;SDS011;29273;49.962;9.768;2023-11-18T14:16:57;5.40;;;4.32;;
38779;SDS011;29273;49.962;9.768;2023-11-18T14:19:24;6.20;;;4.70;;
38779;SDS011;29273;49.962;9.768;2023-11-18T14:21:50;5.60;;;4.40;;
38779;SDS011;29273;49.962;9.768;2023-11-18T14:24:16;5.28;;;4.22;;
38779;SDS011;29273;49.962;9.768;2023-11-18T14:26:45;7.10;;;4.95;;
38779;SDS011;29273;49.962;9.768;2023-11-18T14:29:11;5.47;;;4.50;;
38779;SDS011;29273;49.962;9.768;2023-11-18T14:31:37;6.05;;;4.55;;
38779;SDS011;29273;49.962;9.768;2023-11-18T14:34:03;6.20;;;4.45;;
38779;SDS011;29273;49.962;9.768;2023-11-18T14:36:29;5.40;;;4.38;;
38779;SDS011;29273;49.962;9.768;2023-11-18T14:38:55;5.22;;;4.35;;
38779;SDS011;29273;49.962;9.768;2023-11-18T14:41:21;6.18;;;4.65;;
38779;SDS011;29273;49.962;9.768;2023-11-18T14:43:51;5.22;;;4.30;;
38779;SDS011;29273;49.962;9.768;2023-11-18T14:46:17;5.90;;;4.30;;
38779;SDS011;29273;49.962;9.768;2023-11-18T14:48:43;5.72;;;4.20;;
38779;SDS011;29273;49.962;9.768;2023-11-18T14:51:09;5.53;;;4.50;;
38779;SDS011;29273;49.962;9.768;2023-11-18T14:53:36;5.78;;;4.75;;
38779;SDS011;29273;49.962;9.768;2023-11-18T14:56:03;6.28;;;4.75;;
38779;SDS011;29273;49.962;9.768;2023-11-18T14:58:30;6.50;;;4.95;;
38779;SDS011;29273;49.962;9.768;2023-11-18T15:00:58;5.53;;;4.22;;
38779;SDS011;29273;49.962;9.768;2023-11-18T15:03:25;6.00;;;4.78;;
38779;SDS011;29273;49.962;9.768;2023-11-18T15:05:51;6.95;;;5.32;;
38779;SDS011;29273;49.962;9.768;2023-11-18T15:08:16;6.00;;;4.70;;
38779;SDS011;29273;49.962;9.768;2023-11-18T15:10:42;7.20;;;5.03;;
38779;SDS011;29273;49.962;9.768;2023-11-18T15:13:09;5.97;;;4.88;;
38779;SDS011;29273;49.962;9.768;2023-11-18T15:15:40;5.90;;;4.72;;
38779;SDS011;29273;49.962;9.768;2023-11-18T15:18:06;5.45;;;4.30;;
38779;SDS011;29273;49.962;9.768;2023-11-18T15:20:42;6.88;;;4.90;;
38779;SDS011;29273;49.962;9.768;2023-11-18T15:23:11;7.95;;;5.50;;
38779;SDS011;29273;49.962;9.768;2023-11-18T15:25:37;8.20;;;5.78;;
38779;SDS011;29273;49.962;9.768;2023-11-18T15:28:04;8.23;;;5.72;;
38779;SDS011;29273;49.962;9.768;2023-11-18T15:30:35;7.10;;;5.18;;